sensor_id;sensor_type;location;lat;lon;timestamp;P1;durP1;ratioP1;P2;durP2;ratioP2
27505;SDS011;14939;43.596;1.320;2022-08-01T00:01:08;4.30;;;2.60;;
27505;SDS011;14939;43.596;1.320;2022-08-01T00:03:34;3.78;;;2.47;;
27505;SDS011;14939;43.596;1.320;2022-08-01T00:06:00;4.03;;;2.28;;
27505;SDS011;14939;43.596;1.320;2022-08-01T00:08:25;4.55;;;2.28;;
27505;SDS011;14939;43.596;1.320;2022-08-01T00:10:51;3.58;;;2.30;;
27505;SDS011;14939;43.596;1.320;2022-08-01T00:13:16;3.47;;;2.42;;
27505;SDS011;14939;43.596;1.320;2022-08-01T00:15:42;2.72;;;2.30;;
27505;SDS011;14939;43.596;1.320;2022-08-01T00:18:08;5.22;;;2.50;;
27505;SDS011;14939;43.596;1.320;2022-08-01T00:20:33;2.97;;;2.20;;
27505;SDS011;14939;43.596;1.320;2022-08-01T00:23:01;4.05;;;2.20;;
27505;SDS011;14939;43.596;1.320;2022-08-01T00:25:28;3.90;;;2.30;;
27505;SDS011;14939;43.596;1.320;2022-08-01T00:27:53;3.72;;;2.60;;
27505;SDS011;14939;43.596;1.320;2022-08-01T00:30:19;3.00;;;2.53;;
27505;SDS011;14939;43.596;1.320;2022-08-01T00:32:45;6.43;;;2.70;;
27505;SDS011;14939;43.596;1.320;2022-08-01T00:35:10;7.05;;;2.88;;
27505;SDS011;14939;43.596;1.320;2022-08-01T00:37:36;6.20;;;2.90;;
27505;SDS011;14939;43.596;1.320;2022-08-01T00:40:02;3.28;;;2.78;;
27505;SDS011;14939;43.596;1.320;2022-08-01T00:42:28;3.95;;;2.95;;
27505;SDS011;14939;43.596;1.320;2022-08-01T00:44:54;5.22;;;3.10;;
27505;SDS011;14939;43.596;1.320;2022-08-01T00:47:19;4.40;;;2.92;;
27505;SDS011;14939;43.596;1.320;2022-08-01T00:49:45;6.25;;;3.38;;
27505;SDS011;14939;43.596;1.320;2022-08-01T00:52:11;4.15;;;3.10;;
27505;SDS011;14939;43.596;1.320;2022-08-01T00:54:36;4.53;;;3.50;;
27505;SDS011;14939;43.596;1.320;2022-08-01T00:57:03;6.55;;;3.30;;
27505;SDS011;14939;43.596;1.320;2022-08-01T00:59:30;3.83;;;3.42;;
27505;SDS011;14939;43.596;1.320;2022-08-01T01:01:55;7.10;;;3.40;;
27505;SDS011;14939;43.596;1.320;2022-08-01T01:04:21;7.85;;;3.40;;
27505;SDS011;14939;43.596;1.320;2022-08-01T01:15:15;4.38;;;3.60;;
27505;SDS011;14939;43.596;1.320;2022-08-01T01:20:16;4.85;;;3.25;;
27505;SDS011;14939;43.596;1.320;2022-08-01T01:22:47;4.35;;;3.50;;
27505;SDS011;14939;43.596;1.320;2022-08-01T01:25:32;3.70;;;3.22;;
27505;SDS011;14939;43.596;1.320;2022-08-01T01:30:46;3.72;;;3.10;;
27505;SDS011;14939;43.596;1.320;2022-08-01T01:33:17;4.60;;;3.20;;
27505;SDS011;14939;43.596;1.320;2022-08-01T01:35:46;5.93;;;3.33;;
27505;SDS011;14939;43.596;1.320;2022-08-01T01:38:23;9.02;;;3.50;;
27505;SDS011;14939;43.596;1.320;2022-08-01T01:40:52;5.57;;;3.25;;
27505;SDS011;14939;43.596;1.320;2022-08-01T01:43:20;5.50;;;3.50;;
27505;SDS011;14939;43.596;1.320;2022-08-01T01:45:48;6.07;;;3.47;;
27505;SDS011;14939;43.596;1.320;2022-08-01T01:48:16;4.85;;;3.40;;
27505;SDS011;14939;43.596;1.320;2022-08-01T01:50:47;3.80;;;3.30;;
27505;SDS011;14939;43.596;1.320;2022-08-01T01:53:15;4.35;;;3.45;;
27505;SDS011;14939;43.596;1.320;2022-08-01T01:55:45;6.05;;;3.55;;
27505;SDS011;14939;43.596;1.320;2022-08-01T01:58:13;4.53;;;3.30;;
27505;SDS011;14939;43.596;1.320;2022-08-01T02:00:40;3.55;;;3.25;;
27505;SDS011;14939;43.596;1.320;2022-08-01T02:03:09;5.72;;;3.33;;
27505;SDS011;14939;43.596;1.320;2022-08-01T02:05:36;4.95;;;3.30;;
27505;SDS011;14939;43.596;1.320;2022-08-01T02:08:04;6.38;;;3.47;;
27505;SDS011;14939;43.596;1.320;2022-08-01T02:10:31;4.10;;;3.70;;
27505;SDS011;14939;43.596;1.320;2022-08-01T02:12:59;7.15;;;3.70;;
27505;SDS011;14939;43.596;1.320;2022-08-01T02:15:28;7.40;;;3.72;;
27505;SDS011;14939;43.596;1.320;2022-08-01T02:17:56;5.28;;;3.70;;
27505;SDS011;14939;43.596;1.320;2022-08-01T02:20:22;5.03;;;3.67;;
27505;SDS011;14939;43.596;1.320;2022-08-01T02:22:53;6.82;;;3.90;;
27505;SDS011;14939;43.596;1.320;2022-08-01T02:25:23;5.82;;;3.72;;
27505;SDS011;14939;43.596;1.320;2022-08-01T02:27:59;3.60;;;3.25;;
27505;SDS011;14939;43.596;1.320;2022-08-01T02:30:33;9.13;;;3.58;;
27505;SDS011;14939;43.596;1.320;2022-08-01T02:33:08;5.75;;;3.95;;
27505;SDS011;14939;43.596;1.320;2022-08-01T02:35:40;4.50;;;3.63;;
27505;SDS011;14939;43.596;1.320;2022-08-01T02:38:09;5.40;;;3.45;;
27505;SDS011;14939;43.596;1.320;2022-08-01T02:40:37;5.85;;;3.80;;
27505;SDS011;14939;43.596;1.320;2022-08-01T02:43:06;6.05;;;4.10;;
27505;SDS011;14939;43.596;1.320;2022-08-01T02:45:35;4.82;;;4.00;;
27505;SDS011;14939;43.596;1.320;2022-08-01T02:48:06;5.28;;;3.70;;
27505;SDS011;14939;43.596;1.320;2022-08-01T02:50:38;5.93;;;3.90;;
27505;SDS011;14939;43.596;1.320;2022-08-01T02:53:07;4.90;;;3.70;;
27505;SDS011;14939;43.596;1.320;2022-08-01T02:55:35;6.05;;;4.03;;
27505;SDS011;14939;43.596;1.320;2022-08-01T02:58:03;6.68;;;4.10;;
27505;SDS011;14939;43.596;1.320;2022-08-01T03:00:31;7.28;;;4.03;;
27505;SDS011;14939;43.596;1.320;2022-08-01T03:02:58;4.43;;;3.45;;
27505;SDS011;14939;43.596;1.320;2022-08-01T03:05:26;5.15;;;3.80;;
27505;SDS011;14939;43.596;1.320;2022-08-01T03:07:53;4.70;;;3.90;;
27505;SDS011;14939;43.596;1.320;2022-08-01T03:10:20;6.25;;;4.05;;
27505;SDS011;14939;43.596;1.320;2022-08-01T03:12:47;5.60;;;4.00;;
27505;SDS011;14939;43.596;1.320;2022-08-01T03:15:15;6.28;;;4.03;;
27505;SDS011;14939;43.596;1.320;2022-08-01T03:17:42;4.25;;;3.72;;
27505;SDS011;14939;43.596;1.320;2022-08-01T03:20:12;5.65;;;3.97;;
27505;SDS011;14939;43.596;1.320;2022-08-01T03:22:40;7.95;;;4.28;;
27505;SDS011;14939;43.596;1.320;2022-08-01T03:25:08;7.75;;;3.85;;
27505;SDS011;14939;43.596;1.320;2022-08-01T03:27:36;7.93;;;3.90;;
27505;SDS011;14939;43.596;1.320;2022-08-01T03:30:03;6.65;;;4.22;;
27505;SDS011;14939;43.596;1.320;2022-08-01T03:32:30;5.97;;;4.20;;
27505;SDS011;14939;43.596;1.320;2022-08-01T03:34:57;5.07;;;4.03;;
27505;SDS011;14939;43.596;1.320;2022-08-01T03:37:24;5.40;;;4.00;;
27505;SDS011;14939;43.596;1.320;2022-08-01T03:40:09;6.35;;;3.92;;
27505;SDS011;14939;43.596;1.320;2022-08-01T03:42:44;5.85;;;4.07;;
27505;SDS011;14939;43.596;1.320;2022-08-01T03:45:15;5.13;;;3.60;;
27505;SDS011;14939;43.596;1.320;2022-08-01T03:47:47;5.65;;;4.15;;
27505;SDS011;14939;43.596;1.320;2022-08-01T03:50:18;5.05;;;3.85;;
27505;SDS011;14939;43.596;1.320;2022-08-01T03:52:49;6.35;;;3.95;;
27505;SDS011;14939;43.596;1.320;2022-08-01T03:55:16;8.52;;;4.50;;
27505;SDS011;14939;43.596;1.320;2022-08-01T03:57:44;6.10;;;4.53;;
27505;SDS011;14939;43.596;1.320;2022-08-01T04:00:11;6.25;;;4.10;;
27505;SDS011;14939;43.596;1.320;2022-08-01T04:02:37;8.68;;;3.95;;
27505;SDS011;14939;43.596;1.320;2022-08-01T04:05:03;6.90;;;4.07;;
27505;SDS011;14939;43.596;1.320;2022-08-01T04:07:31;5.68;;;4.30;;
27505;SDS011;14939;43.596;1.320;2022-08-01T04:09:58;5.78;;;4.57;;
27505;SDS011;14939;43.596;1.320;2022-08-01T04:12:24;5.82;;;3.90;;
27505;SDS011;14939;43.596;1.320;2022-08-01T04:14:50;4.97;;;4.00;;
27505;SDS011;14939;43.596;1.320;2022-08-01T04:17:16;6.93;;;4.20;;
27505;SDS011;14939;43.596;1.320;2022-08-01T04:19:42;6.80;;;4.05;;
27505;SDS011;14939;43.596;1.320;2022-08-01T04:22:13;8.95;;;4.20;;
27505;SDS011;14939;43.596;1.320;2022-08-01T04:24:40;9.13;;;3.90;;
27505;SDS011;14939;43.596;1.320;2022-08-01T04:27:14;6.18;;;4.03;;
27505;SDS011;14939;43.596;1.320;2022-08-01T04:29:47;5.90;;;4.35;;
27505;SDS011;14939;43.596;1.320;2022-08-01T04:32:15;9.27;;;4.35;;
27505;SDS011;14939;43.596;1.320;2022-08-01T04:34:44;6.68;;;3.88;;
27505;SDS011;14939;43.596;1.320;2022-08-01T04:37:11;6.50;;;4.30;;
27505;SDS011;14939;43.596;1.320;2022-08-01T04:39:41;5.32;;;4.55;;
27505;SDS011;14939;43.596;1.320;2022-08-01T04:42:09;7.20;;;4.63;;
27505;SDS011;14939;43.596;1.320;2022-08-01T04:44:36;6.38;;;4.45;;
27505;SDS011;14939;43.596;1.320;2022-08-01T04:47:03;7.80;;;4.38;;
27505;SDS011;14939;43.596;1.320;2022-08-01T04:49:33;7.63;;;4.40;;
27505;SDS011;14939;43.596;1.320;2022-08-01T04:51:59;6.40;;;4.75;;
27505;SDS011;14939;43.596;1.320;2022-08-01T04:54:29;6.57;;;4.70;;
27505;SDS011;14939;43.596;1.320;2022-08-01T04:56:59;7.35;;;4.55;;
27505;SDS011;14939;43.596;1.320;2022-08-01T04:59:28;7.93;;;4.40;;
27505;SDS011;14939;43.596;1.320;2022-08-01T05:02:10;7.32;;;4.63;;
27505;SDS011;14939;43.596;1.320;2022-08-01T05:04:39;6.80;;;4.43;;
27505;SDS011;14939;43.596;1.320;2022-08-01T05:07:05;8.27;;;4.90;;
27505;SDS011;14939;43.596;1.320;2022-08-01T05:09:32;7.68;;;5.13;;
27505;SDS011;14939;43.596;1.320;2022-08-01T05:11:59;7.97;;;5.28;;
27505;SDS011;14939;43.596;1.320;2022-08-01T05:14:26;7.07;;;4.90;;
27505;SDS011;14939;43.596;1.320;2022-08-01T05:16:53;8.13;;;4.97;;
27505;SDS011;14939;43.596;1.320;2022-08-01T05:19:19;8.35;;;5.63;;
27505;SDS011;14939;43.596;1.320;2022-08-01T05:21:45;10.68;;;5.60;;
27505;SDS011;14939;43.596;1.320;2022-08-01T05:24:11;9.93;;;5.90;;
27505;SDS011;14939;43.596;1.320;2022-08-01T05:26:38;7.60;;;5.50;;
27505;SDS011;14939;43.596;1.320;2022-08-01T05:29:04;9.10;;;5.97;;
27505;SDS011;14939;43.596;1.320;2022-08-01T05:31:30;10.30;;;6.15;;
27505;SDS011;14939;43.596;1.320;2022-08-01T05:33:59;11.75;;;6.20;;
27505;SDS011;14939;43.596;1.320;2022-08-01T05:36:25;11.38;;;6.55;;
27505;SDS011;14939;43.596;1.320;2022-08-01T05:38:51;10.55;;;6.28;;
27505;SDS011;14939;43.596;1.320;2022-08-01T05:41:17;8.38;;;6.57;;
27505;SDS011;14939;43.596;1.320;2022-08-01T05:43:42;8.80;;;6.72;;
27505;SDS011;14939;43.596;1.320;2022-08-01T05:46:08;8.52;;;6.80;;
27505;SDS011;14939;43.596;1.320;2022-08-01T05:48:33;8.98;;;7.43;;
27505;SDS011;14939;43.596;1.320;2022-08-01T05:50:59;10.20;;;6.60;;
27505;SDS011;14939;43.596;1.320;2022-08-01T05:53:25;11.63;;;7.03;;
27505;SDS011;14939;43.596;1.320;2022-08-01T05:55:51;11.00;;;7.70;;
27505;SDS011;14939;43.596;1.320;2022-08-01T05:58:16;9.70;;;7.53;;
27505;SDS011;14939;43.596;1.320;2022-08-01T06:00:42;11.45;;;7.63;;
27505;SDS011;14939;43.596;1.320;2022-08-01T06:03:08;8.63;;;7.30;;
27505;SDS011;14939;43.596;1.320;2022-08-01T06:05:33;11.45;;;7.60;;
27505;SDS011;14939;43.596;1.320;2022-08-01T06:07:59;11.20;;;8.15;;
27505;SDS011;14939;43.596;1.320;2022-08-01T06:10:25;11.23;;;7.88;;
27505;SDS011;14939;43.596;1.320;2022-08-01T06:12:50;11.85;;;8.70;;
27505;SDS011;14939;43.596;1.320;2022-08-01T06:15:16;12.07;;;8.85;;
27505;SDS011;14939;43.596;1.320;2022-08-01T06:17:42;12.27;;;9.07;;
27505;SDS011;14939;43.596;1.320;2022-08-01T06:20:08;16.17;;;8.63;;
27505;SDS011;14939;43.596;1.320;2022-08-01T06:22:34;11.77;;;8.80;;
27505;SDS011;14939;43.596;1.320;2022-08-01T06:24:59;11.68;;;9.38;;
27505;SDS011;14939;43.596;1.320;2022-08-01T06:27:25;12.90;;;9.15;;
27505;SDS011;14939;43.596;1.320;2022-08-01T06:29:51;11.23;;;8.52;;
27505;SDS011;14939;43.596;1.320;2022-08-01T06:32:20;12.55;;;9.50;;
27505;SDS011;14939;43.596;1.320;2022-08-01T06:34:47;11.55;;;9.27;;
27505;SDS011;14939;43.596;1.320;2022-08-01T06:37:13;12.93;;;9.10;;
27505;SDS011;14939;43.596;1.320;2022-08-01T06:39:39;9.82;;;8.77;;
27505;SDS011;14939;43.596;1.320;2022-08-01T06:42:05;11.73;;;9.40;;
27505;SDS011;14939;43.596;1.320;2022-08-01T06:44:31;11.20;;;9.38;;
27505;SDS011;14939;43.596;1.320;2022-08-01T06:46:56;11.48;;;8.77;;
27505;SDS011;14939;43.596;1.320;2022-08-01T06:49:23;14.18;;;9.10;;
27505;SDS011;14939;43.596;1.320;2022-08-01T06:51:49;10.88;;;9.00;;
27505;SDS011;14939;43.596;1.320;2022-08-01T06:54:15;11.20;;;8.70;;
27505;SDS011;14939;43.596;1.320;2022-08-01T06:56:41;11.57;;;9.02;;
27505;SDS011;14939;43.596;1.320;2022-08-01T06:59:07;10.68;;;9.38;;
27505;SDS011;14939;43.596;1.320;2022-08-01T07:01:33;12.02;;;8.50;;
27505;SDS011;14939;43.596;1.320;2022-08-01T07:03:58;11.00;;;8.52;;
27505;SDS011;14939;43.596;1.320;2022-08-01T07:06:24;14.38;;;8.45;;
27505;SDS011;14939;43.596;1.320;2022-08-01T07:08:51;13.07;;;8.05;;
27505;SDS011;14939;43.596;1.320;2022-08-01T07:11:17;12.45;;;8.45;;
27505;SDS011;14939;43.596;1.320;2022-08-01T07:13:43;11.07;;;8.02;;
27505;SDS011;14939;43.596;1.320;2022-08-01T07:16:10;12.55;;;8.40;;
27505;SDS011;14939;43.596;1.320;2022-08-01T07:18:40;12.20;;;8.50;;
27505;SDS011;14939;43.596;1.320;2022-08-01T07:21:06;13.60;;;8.50;;
27505;SDS011;14939;43.596;1.320;2022-08-01T07:23:32;11.32;;;8.30;;
27505;SDS011;14939;43.596;1.320;2022-08-01T07:25:58;12.25;;;8.13;;
27505;SDS011;14939;43.596;1.320;2022-08-01T07:28:26;13.40;;;8.60;;
27505;SDS011;14939;43.596;1.320;2022-08-01T07:30:52;11.93;;;7.97;;
27505;SDS011;14939;43.596;1.320;2022-08-01T07:33:18;9.82;;;7.20;;
27505;SDS011;14939;43.596;1.320;2022-08-01T07:35:43;13.80;;;7.80;;
27505;SDS011;14939;43.596;1.320;2022-08-01T07:38:09;12.60;;;7.28;;
27505;SDS011;14939;43.596;1.320;2022-08-01T07:40:35;12.60;;;7.18;;
27505;SDS011;14939;43.596;1.320;2022-08-01T07:43:00;12.30;;;7.38;;
27505;SDS011;14939;43.596;1.320;2022-08-01T07:45:26;13.75;;;6.78;;
27505;SDS011;14939;43.596;1.320;2022-08-01T07:47:52;10.10;;;7.00;;
27505;SDS011;14939;43.596;1.320;2022-08-01T07:50:18;12.13;;;7.50;;
27505;SDS011;14939;43.596;1.320;2022-08-01T07:52:44;11.15;;;7.07;;
27505;SDS011;14939;43.596;1.320;2022-08-01T07:55:10;9.13;;;7.05;;
27505;SDS011;14939;43.596;1.320;2022-08-01T07:57:36;11.60;;;7.68;;
27505;SDS011;14939;43.596;1.320;2022-08-01T08:00:06;11.48;;;7.38;;
27505;SDS011;14939;43.596;1.320;2022-08-01T08:02:34;9.40;;;7.35;;
27505;SDS011;14939;43.596;1.320;2022-08-01T08:04:59;8.63;;;6.55;;
27505;SDS011;14939;43.596;1.320;2022-08-01T08:07:25;11.90;;;7.38;;
27505;SDS011;14939;43.596;1.320;2022-08-01T08:09:51;8.82;;;7.35;;
27505;SDS011;14939;43.596;1.320;2022-08-01T08:12:16;10.43;;;7.45;;
27505;SDS011;14939;43.596;1.320;2022-08-01T08:14:42;13.05;;;7.28;;
27505;SDS011;14939;43.596;1.320;2022-08-01T08:17:08;10.82;;;7.60;;
27505;SDS011;14939;43.596;1.320;2022-08-01T08:19:33;13.55;;;7.07;;
27505;SDS011;14939;43.596;1.320;2022-08-01T08:22:02;8.63;;;6.53;;
27505;SDS011;14939;43.596;1.320;2022-08-01T08:24:27;10.68;;;7.28;;
27505;SDS011;14939;43.596;1.320;2022-08-01T08:26:54;11.05;;;7.13;;
27505;SDS011;14939;43.596;1.320;2022-08-01T08:29:21;7.55;;;6.80;;
27505;SDS011;14939;43.596;1.320;2022-08-01T08:31:48;7.50;;;6.40;;
27505;SDS011;14939;43.596;1.320;2022-08-01T08:34:14;9.95;;;7.50;;
27505;SDS011;14939;43.596;1.320;2022-08-01T08:36:40;9.90;;;6.85;;
27505;SDS011;14939;43.596;1.320;2022-08-01T08:39:06;11.80;;;6.97;;
27505;SDS011;14939;43.596;1.320;2022-08-01T08:41:32;9.38;;;6.10;;
27505;SDS011;14939;43.596;1.320;2022-08-01T08:44:00;11.75;;;7.25;;
27505;SDS011;14939;43.596;1.320;2022-08-01T08:46:26;9.05;;;6.35;;
27505;SDS011;14939;43.596;1.320;2022-08-01T08:48:53;12.23;;;6.55;;
27505;SDS011;14939;43.596;1.320;2022-08-01T08:51:20;11.43;;;6.75;;
27505;SDS011;14939;43.596;1.320;2022-08-01T08:53:48;13.57;;;7.07;;
27505;SDS011;14939;43.596;1.320;2022-08-01T08:56:17;11.40;;;6.75;;
27505;SDS011;14939;43.596;1.320;2022-08-01T08:58:44;12.57;;;7.70;;
27505;SDS011;14939;43.596;1.320;2022-08-01T09:01:11;9.80;;;7.20;;
27505;SDS011;14939;43.596;1.320;2022-08-01T09:03:37;9.32;;;6.80;;
27505;SDS011;14939;43.596;1.320;2022-08-01T09:06:04;13.07;;;6.38;;
27505;SDS011;14939;43.596;1.320;2022-08-01T09:08:30;11.60;;;6.53;;
27505;SDS011;14939;43.596;1.320;2022-08-01T09:10:56;9.80;;;6.43;;
27505;SDS011;14939;43.596;1.320;2022-08-01T09:13:21;7.82;;;6.30;;
27505;SDS011;14939;43.596;1.320;2022-08-01T09:15:51;8.68;;;5.65;;
27505;SDS011;14939;43.596;1.320;2022-08-01T09:21:07;11.75;;;6.50;;
27505;SDS011;14939;43.596;1.320;2022-08-01T09:23:49;10.43;;;6.20;;
27505;SDS011;14939;43.596;1.320;2022-08-01T09:26:31;17.67;;;6.57;;
27505;SDS011;14939;43.596;1.320;2022-08-01T09:28:58;13.85;;;6.35;;
27505;SDS011;14939;43.596;1.320;2022-08-01T09:31:26;11.73;;;6.60;;
27505;SDS011;14939;43.596;1.320;2022-08-01T09:33:57;10.15;;;5.30;;
27505;SDS011;14939;43.596;1.320;2022-08-01T09:36:50;10.60;;;6.10;;
27505;SDS011;14939;43.596;1.320;2022-08-01T09:39:24;18.98;;;6.93;;
27505;SDS011;14939;43.596;1.320;2022-08-01T09:41:55;23.20;;;6.68;;
27505;SDS011;14939;43.596;1.320;2022-08-01T09:44:41;8.52;;;5.60;;
27505;SDS011;14939;43.596;1.320;2022-08-01T09:47:08;9.15;;;5.57;;
27505;SDS011;14939;43.596;1.320;2022-08-01T09:49:36;10.40;;;6.47;;
27505;SDS011;14939;43.596;1.320;2022-08-01T09:52:11;11.05;;;6.43;;
27505;SDS011;14939;43.596;1.320;2022-08-01T09:54:40;11.55;;;5.70;;
27505;SDS011;14939;43.596;1.320;2022-08-01T09:57:11;9.05;;;5.60;;
27505;SDS011;14939;43.596;1.320;2022-08-01T09:59:44;9.35;;;6.15;;
27505;SDS011;14939;43.596;1.320;2022-08-01T10:02:12;10.00;;;6.15;;
27505;SDS011;14939;43.596;1.320;2022-08-01T10:04:49;7.47;;;6.28;;
27505;SDS011;14939;43.596;1.320;2022-08-01T10:07:16;8.18;;;6.30;;
27505;SDS011;14939;43.596;1.320;2022-08-01T10:09:43;7.55;;;5.68;;
27505;SDS011;14939;43.596;1.320;2022-08-01T10:12:10;5.97;;;5.38;;
27505;SDS011;14939;43.596;1.320;2022-08-01T10:14:37;12.15;;;5.80;;
27505;SDS011;14939;43.596;1.320;2022-08-01T10:17:06;8.00;;;5.75;;
27505;SDS011;14939;43.596;1.320;2022-08-01T10:19:33;14.27;;;6.15;;
27505;SDS011;14939;43.596;1.320;2022-08-01T10:22:00;11.13;;;5.70;;
27505;SDS011;14939;43.596;1.320;2022-08-01T10:24:27;9.80;;;5.93;;
27505;SDS011;14939;43.596;1.320;2022-08-01T10:26:56;8.57;;;5.78;;
27505;SDS011;14939;43.596;1.320;2022-08-01T10:29:27;6.38;;;5.50;;
27505;SDS011;14939;43.596;1.320;2022-08-01T10:31:58;8.65;;;5.85;;
27505;SDS011;14939;43.596;1.320;2022-08-01T10:34:24;7.35;;;6.20;;
27505;SDS011;14939;43.596;1.320;2022-08-01T10:36:50;10.77;;;6.13;;
27505;SDS011;14939;43.596;1.320;2022-08-01T10:39:16;9.13;;;5.85;;
27505;SDS011;14939;43.596;1.320;2022-08-01T10:41:43;10.52;;;4.97;;
27505;SDS011;14939;43.596;1.320;2022-08-01T10:44:10;6.90;;;5.30;;
27505;SDS011;14939;43.596;1.320;2022-08-01T10:46:39;10.20;;;5.43;;
27505;SDS011;14939;43.596;1.320;2022-08-01T10:49:11;6.25;;;5.40;;
27505;SDS011;14939;43.596;1.320;2022-08-01T10:51:40;8.13;;;5.70;;
27505;SDS011;14939;43.596;1.320;2022-08-01T10:54:07;10.32;;;5.47;;
27505;SDS011;14939;43.596;1.320;2022-08-01T10:56:45;6.18;;;5.57;;
27505;SDS011;14939;43.596;1.320;2022-08-01T11:01:59;6.63;;;5.05;;
27505;SDS011;14939;43.596;1.320;2022-08-01T11:04:34;8.60;;;5.20;;
27505;SDS011;14939;43.596;1.320;2022-08-01T11:07:10;9.98;;;5.43;;
27505;SDS011;14939;43.596;1.320;2022-08-01T11:09:47;6.85;;;4.57;;
27505;SDS011;14939;43.596;1.320;2022-08-01T11:12:23;9.10;;;5.13;;
27505;SDS011;14939;43.596;1.320;2022-08-01T11:17:38;7.10;;;4.80;;
27505;SDS011;14939;43.596;1.320;2022-08-01T11:30:41;8.23;;;6.05;;
27505;SDS011;14939;43.596;1.320;2022-08-01T11:33:08;9.00;;;6.00;;
27505;SDS011;14939;43.596;1.320;2022-08-01T11:35:34;7.80;;;5.28;;
27505;SDS011;14939;43.596;1.320;2022-08-01T11:41:10;7.78;;;5.10;;
27505;SDS011;14939;43.596;1.320;2022-08-01T11:43:38;7.85;;;4.75;;
27505;SDS011;14939;43.596;1.320;2022-08-01T11:46:44;5.65;;;5.15;;
27505;SDS011;14939;43.596;1.320;2022-08-01T11:49:25;8.35;;;5.00;;
27505;SDS011;14939;43.596;1.320;2022-08-01T11:52:11;8.20;;;4.97;;
27505;SDS011;14939;43.596;1.320;2022-08-01T11:54:43;5.57;;;4.47;;
27505;SDS011;14939;43.596;1.320;2022-08-01T11:57:14;7.63;;;5.15;;
27505;SDS011;14939;43.596;1.320;2022-08-01T11:59:53;6.05;;;4.63;;
27505;SDS011;14939;43.596;1.320;2022-08-01T12:02:27;8.20;;;4.88;;
27505;SDS011;14939;43.596;1.320;2022-08-01T12:07:24;7.25;;;4.30;;
27505;SDS011;14939;43.596;1.320;2022-08-01T12:12:32;7.15;;;4.10;;
27505;SDS011;14939;43.596;1.320;2022-08-01T12:15:00;5.45;;;4.10;;
27505;SDS011;14939;43.596;1.320;2022-08-01T12:17:29;6.93;;;4.45;;
27505;SDS011;14939;43.596;1.320;2022-08-01T12:20:07;9.40;;;4.43;;
27505;SDS011;14939;43.596;1.320;2022-08-01T12:22:35;7.25;;;3.90;;
27505;SDS011;14939;43.596;1.320;2022-08-01T12:25:19;5.47;;;4.22;;
27505;SDS011;14939;43.596;1.320;2022-08-01T12:27:45;6.53;;;3.85;;
27505;SDS011;14939;43.596;1.320;2022-08-01T12:30:17;5.32;;;3.67;;
27505;SDS011;14939;43.596;1.320;2022-08-01T12:32:45;4.50;;;4.10;;
27505;SDS011;14939;43.596;1.320;2022-08-01T12:35:13;5.43;;;3.80;;
27505;SDS011;14939;43.596;1.320;2022-08-01T12:37:41;5.38;;;3.67;;
27505;SDS011;14939;43.596;1.320;2022-08-01T12:40:10;5.65;;;3.80;;
27505;SDS011;14939;43.596;1.320;2022-08-01T12:42:47;5.53;;;4.10;;
27505;SDS011;14939;43.596;1.320;2022-08-01T12:45:17;6.53;;;3.83;;
27505;SDS011;14939;43.596;1.320;2022-08-01T12:47:45;8.00;;;3.30;;
27505;SDS011;14939;43.596;1.320;2022-08-01T12:50:15;6.35;;;3.13;;
27505;SDS011;14939;43.596;1.320;2022-08-01T12:52:43;9.60;;;2.92;;
27505;SDS011;14939;43.596;1.320;2022-08-01T12:55:11;5.95;;;3.78;;
27505;SDS011;14939;43.596;1.320;2022-08-01T12:57:40;4.38;;;2.97;;
27505;SDS011;14939;43.596;1.320;2022-08-01T13:03:04;6.05;;;3.65;;
27505;SDS011;14939;43.596;1.320;2022-08-01T13:05:47;5.60;;;3.40;;
27505;SDS011;14939;43.596;1.320;2022-08-01T13:08:17;7.28;;;3.10;;
27505;SDS011;14939;43.596;1.320;2022-08-01T13:10:47;3.80;;;3.28;;
27505;SDS011;14939;43.596;1.320;2022-08-01T13:13:14;4.80;;;3.05;;
27505;SDS011;14939;43.596;1.320;2022-08-01T13:15:42;4.03;;;3.17;;
27505;SDS011;14939;43.596;1.320;2022-08-01T13:18:22;5.50;;;3.03;;
27505;SDS011;14939;43.596;1.320;2022-08-01T13:23:38;6.40;;;3.35;;
27505;SDS011;14939;43.596;1.320;2022-08-01T13:26:04;4.30;;;3.15;;
27505;SDS011;14939;43.596;1.320;2022-08-01T13:28:30;6.35;;;2.97;;
27505;SDS011;14939;43.596;1.320;2022-08-01T13:31:01;3.35;;;2.95;;
27505;SDS011;14939;43.596;1.320;2022-08-01T13:36:13;4.68;;;2.90;;
27505;SDS011;14939;43.596;1.320;2022-08-01T13:38:39;4.60;;;3.20;;
27505;SDS011;14939;43.596;1.320;2022-08-01T13:41:25;6.32;;;3.10;;
27505;SDS011;14939;43.596;1.320;2022-08-01T13:43:51;5.95;;;2.92;;
27505;SDS011;14939;43.596;1.320;2022-08-01T13:46:17;5.03;;;3.30;;
27505;SDS011;14939;43.596;1.320;2022-08-01T13:48:43;6.97;;;3.45;;
27505;SDS011;14939;43.596;1.320;2022-08-01T13:51:09;6.18;;;2.92;;
27505;SDS011;14939;43.596;1.320;2022-08-01T13:53:35;4.53;;;2.50;;
27505;SDS011;14939;43.596;1.320;2022-08-01T13:56:01;3.55;;;2.60;;
27505;SDS011;14939;43.596;1.320;2022-08-01T13:58:27;6.75;;;2.72;;
27505;SDS011;14939;43.596;1.320;2022-08-01T14:00:53;4.53;;;3.10;;
27505;SDS011;14939;43.596;1.320;2022-08-01T14:03:20;4.75;;;2.95;;
27505;SDS011;14939;43.596;1.320;2022-08-01T14:05:47;4.32;;;2.35;;
27505;SDS011;14939;43.596;1.320;2022-08-01T14:08:13;3.53;;;2.65;;
27505;SDS011;14939;43.596;1.320;2022-08-01T14:10:39;3.90;;;2.38;;
27505;SDS011;14939;43.596;1.320;2022-08-01T14:13:05;3.22;;;2.28;;
27505;SDS011;14939;43.596;1.320;2022-08-01T14:15:31;3.70;;;2.40;;
27505;SDS011;14939;43.596;1.320;2022-08-01T14:17:57;3.53;;;2.60;;
27505;SDS011;14939;43.596;1.320;2022-08-01T14:20:23;2.92;;;2.40;;
27505;SDS011;14939;43.596;1.320;2022-08-01T14:22:49;2.35;;;2.15;;
27505;SDS011;14939;43.596;1.320;2022-08-01T14:25:15;4.50;;;2.92;;
27505;SDS011;14939;43.596;1.320;2022-08-01T14:27:43;6.47;;;2.60;;
27505;SDS011;14939;43.596;1.320;2022-08-01T14:30:09;4.38;;;2.50;;
27505;SDS011;14939;43.596;1.320;2022-08-01T14:32:36;5.53;;;2.53;;
27505;SDS011;14939;43.596;1.320;2022-08-01T14:35:02;3.80;;;2.58;;
27505;SDS011;14939;43.596;1.320;2022-08-01T14:37:30;2.95;;;2.67;;
27505;SDS011;14939;43.596;1.320;2022-08-01T14:39:59;5.25;;;2.60;;
27505;SDS011;14939;43.596;1.320;2022-08-01T14:42:29;6.20;;;2.45;;
27505;SDS011;14939;43.596;1.320;2022-08-01T14:44:55;6.40;;;2.55;;
27505;SDS011;14939;43.596;1.320;2022-08-01T14:47:21;4.18;;;2.75;;
27505;SDS011;14939;43.596;1.320;2022-08-01T14:49:46;3.80;;;2.70;;
27505;SDS011;14939;43.596;1.320;2022-08-01T14:52:12;4.60;;;2.67;;
27505;SDS011;14939;43.596;1.320;2022-08-01T14:54:38;9.40;;;2.50;;
27505;SDS011;14939;43.596;1.320;2022-08-01T14:57:03;2.50;;;2.30;;
27505;SDS011;14939;43.596;1.320;2022-08-01T14:59:29;3.95;;;2.33;;
27505;SDS011;14939;43.596;1.320;2022-08-01T15:01:55;4.65;;;2.55;;
27505;SDS011;14939;43.596;1.320;2022-08-01T15:04:20;4.78;;;2.20;;
27505;SDS011;14939;43.596;1.320;2022-08-01T15:06:46;3.33;;;2.20;;
27505;SDS011;14939;43.596;1.320;2022-08-01T15:09:12;3.22;;;2.25;;
27505;SDS011;14939;43.596;1.320;2022-08-01T15:11:37;4.45;;;2.70;;
27505;SDS011;14939;43.596;1.320;2022-08-01T15:14:03;2.72;;;2.45;;
27505;SDS011;14939;43.596;1.320;2022-08-01T15:16:47;4.65;;;2.45;;
27505;SDS011;14939;43.596;1.320;2022-08-01T15:19:13;3.10;;;2.50;;
27505;SDS011;14939;43.596;1.320;2022-08-01T15:21:39;4.85;;;2.13;;
27505;SDS011;14939;43.596;1.320;2022-08-01T15:24:05;4.07;;;2.10;;
27505;SDS011;14939;43.596;1.320;2022-08-01T15:26:31;4.03;;;2.05;;
27505;SDS011;14939;43.596;1.320;2022-08-01T15:28:57;2.47;;;2.10;;
27505;SDS011;14939;43.596;1.320;2022-08-01T15:31:22;3.80;;;2.10;;
27505;SDS011;14939;43.596;1.320;2022-08-01T15:33:48;3.10;;;1.88;;
27505;SDS011;14939;43.596;1.320;2022-08-01T15:36:14;3.70;;;1.50;;
27505;SDS011;14939;43.596;1.320;2022-08-01T15:38:39;2.53;;;1.60;;
27505;SDS011;14939;43.596;1.320;2022-08-01T15:41:05;1.83;;;1.30;;